sensor_id;sensor_type;location;lat;lon;timestamp;P1;durP1;ratioP1;P2;durP2;ratioP2
42036;SDS011;30340;52.004;5.908;2023-07-24T00:00:26;1.58;;;1.48;;
42036;SDS011;30340;52.004;5.908;2023-07-24T00:02:51;1.30;;;1.20;;
42036;SDS011;30340;52.004;5.908;2023-07-24T00:05:18;2.00;;;1.60;;
42036;SDS011;30340;52.004;5.908;2023-07-24T00:07:44;1.92;;;1.73;;
42036;SDS011;30340;52.004;5.908;2023-07-24T00:10:10;1.70;;;1.60;;
42036;SDS011;30340;52.004;5.908;2023-07-24T00:12:35;1.75;;;1.63;;
42036;SDS011;30340;52.004;5.908;2023-07-24T00:15:01;1.60;;;1.50;;
42036;SDS011;30340;52.004;5.908;2023-07-24T00:17:27;1.50;;;1.40;;
42036;SDS011;30340;52.004;5.908;2023-07-24T00:19:52;2.58;;;1.90;;
42036;SDS011;30340;52.004;5.908;2023-07-24T00:22:18;3.05;;;1.83;;
42036;SDS011;30340;52.004;5.908;2023-07-24T00:24:43;1.73;;;1.63;;
42036;SDS011;30340;52.004;5.908;2023-07-24T00:27:09;2.58;;;1.50;;
42036;SDS011;30340;52.004;5.908;2023-07-24T00:29:34;1.92;;;1.80;;
42036;SDS011;30340;52.004;5.908;2023-07-24T00:32:00;2.42;;;1.73;;
42036;SDS011;30340;52.004;5.908;2023-07-24T00:34:26;1.80;;;1.60;;
42036;SDS011;30340;52.004;5.908;2023-07-24T00:36:51;1.70;;;1.60;;
42036;SDS011;30340;52.004;5.908;2023-07-24T00:39:17;2.10;;;1.63;;
42036;SDS011;30340;52.004;5.908;2023-07-24T00:41:42;2.38;;;1.95;;
42036;SDS011;30340;52.004;5.908;2023-07-24T00:44:08;2.03;;;1.83;;
42036;SDS011;30340;52.004;5.908;2023-07-24T00:46:34;2.40;;;1.90;;
42036;SDS011;30340;52.004;5.908;2023-07-24T00:49:01;2.28;;;2.00;;
42036;SDS011;30340;52.004;5.908;2023-07-24T00:51:27;2.05;;;1.83;;
42036;SDS011;30340;52.004;5.908;2023-07-24T00:53:56;3.22;;;2.00;;
42036;SDS011;30340;52.004;5.908;2023-07-24T00:56:25;2.42;;;1.98;;
42036;SDS011;30340;52.004;5.908;2023-07-24T00:58:51;2.72;;;1.85;;
42036;SDS011;30340;52.004;5.908;2023-07-24T01:01:17;1.60;;;1.50;;
42036;SDS011;30340;52.004;5.908;2023-07-24T01:03:43;2.22;;;1.80;;
42036;SDS011;30340;52.004;5.908;2023-07-24T01:06:09;2.13;;;1.88;;
42036;SDS011;30340;52.004;5.908;2023-07-24T01:08:35;2.17;;;1.70;;
42036;SDS011;30340;52.004;5.908;2023-07-24T01:11:08;3.08;;;1.67;;
42036;SDS011;30340;52.004;5.908;2023-07-24T01:13:40;2.58;;;1.95;;
42036;SDS011;30340;52.004;5.908;2023-07-24T01:16:10;2.58;;;1.73;;
42036;SDS011;30340;52.004;5.908;2023-07-24T01:18:39;2.13;;;1.60;;
42036;SDS011;30340;52.004;5.908;2023-07-24T01:21:07;1.77;;;1.65;;
42036;SDS011;30340;52.004;5.908;2023-07-24T01:23:44;1.95;;;1.60;;
42036;SDS011;30340;52.004;5.908;2023-07-24T01:26:23;2.50;;;2.20;;
42036;SDS011;30340;52.004;5.908;2023-07-24T01:28:50;2.50;;;1.83;;
42036;SDS011;30340;52.004;5.908;2023-07-24T01:31:15;2.10;;;1.80;;
42036;SDS011;30340;52.004;5.908;2023-07-24T01:33:42;2.85;;;2.00;;
42036;SDS011;30340;52.004;5.908;2023-07-24T01:36:08;2.53;;;2.00;;
42036;SDS011;30340;52.004;5.908;2023-07-24T01:38:35;2.75;;;2.38;;
42036;SDS011;30340;52.004;5.908;2023-07-24T01:41:05;2.63;;;2.33;;
42036;SDS011;30340;52.004;5.908;2023-07-24T01:43:30;3.50;;;2.30;;
42036;SDS011;30340;52.004;5.908;2023-07-24T01:45:57;2.45;;;2.22;;
42036;SDS011;30340;52.004;5.908;2023-07-24T01:48:23;3.30;;;2.85;;
42036;SDS011;30340;52.004;5.908;2023-07-24T01:50:48;2.90;;;2.60;;
42036;SDS011;30340;52.004;5.908;2023-07-24T01:53:15;2.67;;;2.45;;
42036;SDS011;30340;52.004;5.908;2023-07-24T01:55:40;3.33;;;2.70;;
42036;SDS011;30340;52.004;5.908;2023-07-24T01:58:06;3.28;;;2.80;;
42036;SDS011;30340;52.004;5.908;2023-07-24T02:00:32;3.22;;;2.90;;
42036;SDS011;30340;52.004;5.908;2023-07-24T02:02:57;2.47;;;2.28;;
42036;SDS011;30340;52.004;5.908;2023-07-24T02:05:23;2.60;;;2.30;;
42036;SDS011;30340;52.004;5.908;2023-07-24T02:07:48;3.58;;;2.67;;
42036;SDS011;30340;52.004;5.908;2023-07-24T02:10:14;3.17;;;2.72;;
42036;SDS011;30340;52.004;5.908;2023-07-24T02:12:39;4.53;;;3.08;;
42036;SDS011;30340;52.004;5.908;2023-07-24T02:15:06;3.60;;;2.78;;
42036;SDS011;30340;52.004;5.908;2023-07-24T02:17:32;2.63;;;2.42;;
42036;SDS011;30340;52.004;5.908;2023-07-24T02:19:57;3.13;;;2.53;;
42036;SDS011;30340;52.004;5.908;2023-07-24T02:22:23;3.00;;;2.70;;
42036;SDS011;30340;52.004;5.908;2023-07-24T02:24:49;2.80;;;2.55;;
42036;SDS011;30340;52.004;5.908;2023-07-24T02:27:24;4.38;;;2.92;;
42036;SDS011;30340;52.004;5.908;2023-07-24T02:29:53;3.13;;;2.72;;
42036;SDS011;30340;52.004;5.908;2023-07-24T02:32:19;3.70;;;2.90;;
42036;SDS011;30340;52.004;5.908;2023-07-24T02:34:48;3.35;;;2.85;;
42036;SDS011;30340;52.004;5.908;2023-07-24T02:37:17;3.25;;;2.50;;
42036;SDS011;30340;52.004;5.908;2023-07-24T02:39:42;3.58;;;2.60;;
42036;SDS011;30340;52.004;5.908;2023-07-24T02:42:08;3.35;;;2.80;;
42036;SDS011;30340;52.004;5.908;2023-07-24T02:44:34;3.25;;;2.85;;
42036;SDS011;30340;52.004;5.908;2023-07-24T02:47:00;2.80;;;2.60;;
42036;SDS011;30340;52.004;5.908;2023-07-24T02:49:25;3.20;;;2.50;;
42036;SDS011;30340;52.004;5.908;2023-07-24T02:51:51;4.45;;;2.70;;
42036;SDS011;30340;52.004;5.908;2023-07-24T02:54:16;3.80;;;2.80;;
42036;SDS011;30340;52.004;5.908;2023-07-24T02:56:42;3.47;;;2.63;;
42036;SDS011;30340;52.004;5.908;2023-07-24T02:59:07;3.45;;;2.72;;
42036;SDS011;30340;52.004;5.908;2023-07-24T03:01:33;3.20;;;2.90;;
42036;SDS011;30340;52.004;5.908;2023-07-24T03:03:58;3.70;;;2.67;;
42036;SDS011;30340;52.004;5.908;2023-07-24T03:06:25;3.15;;;2.40;;
42036;SDS011;30340;52.004;5.908;2023-07-24T03:08:50;2.85;;;2.40;;
42036;SDS011;30340;52.004;5.908;2023-07-24T03:11:16;3.72;;;2.67;;
42036;SDS011;30340;52.004;5.908;2023-07-24T03:13:42;2.90;;;2.50;;
42036;SDS011;30340;52.004;5.908;2023-07-24T03:16:08;3.03;;;2.45;;
42036;SDS011;30340;52.004;5.908;2023-07-24T03:18:33;3.88;;;2.70;;
42036;SDS011;30340;52.004;5.908;2023-07-24T03:20:59;3.17;;;2.80;;
42036;SDS011;30340;52.004;5.908;2023-07-24T03:23:25;5.25;;;3.47;;
42036;SDS011;30340;52.004;5.908;2023-07-24T03:25:50;3.45;;;2.70;;
42036;SDS011;30340;52.004;5.908;2023-07-24T03:28:16;4.20;;;3.10;;
42036;SDS011;30340;52.004;5.908;2023-07-24T03:30:41;2.95;;;2.42;;
42036;SDS011;30340;52.004;5.908;2023-07-24T03:33:07;4.25;;;3.05;;
42036;SDS011;30340;52.004;5.908;2023-07-24T03:35:33;3.72;;;3.10;;
42036;SDS011;30340;52.004;5.908;2023-07-24T03:37:58;3.53;;;3.08;;
42036;SDS011;30340;52.004;5.908;2023-07-24T03:40:24;4.10;;;3.08;;
42036;SDS011;30340;52.004;5.908;2023-07-24T03:42:49;4.22;;;3.35;;
42036;SDS011;30340;52.004;5.908;2023-07-24T03:45:15;3.28;;;2.63;;
42036;SDS011;30340;52.004;5.908;2023-07-24T03:47:41;3.35;;;2.63;;
42036;SDS011;30340;52.004;5.908;2023-07-24T03:50:06;3.65;;;2.90;;
42036;SDS011;30340;52.004;5.908;2023-07-24T03:52:32;3.75;;;2.75;;
42036;SDS011;30340;52.004;5.908;2023-07-24T03:54:57;4.65;;;3.88;;
42036;SDS011;30340;52.004;5.908;2023-07-24T03:57:23;6.18;;;4.47;;
42036;SDS011;30340;52.004;5.908;2023-07-24T03:59:49;4.93;;;4.30;;
42036;SDS011;30340;52.004;5.908;2023-07-24T04:02:14;4.13;;;3.70;;
42036;SDS011;30340;52.004;5.908;2023-07-24T04:04:40;5.18;;;4.25;;
42036;SDS011;30340;52.004;5.908;2023-07-24T04:07:05;4.25;;;3.60;;
42036;SDS011;30340;52.004;5.908;2023-07-24T04:09:31;3.63;;;3.28;;
42036;SDS011;30340;52.004;5.908;2023-07-24T04:11:57;5.47;;;4.22;;
42036;SDS011;30340;52.004;5.908;2023-07-24T04:14:22;4.57;;;3.92;;
42036;SDS011;30340;52.004;5.908;2023-07-24T04:16:48;5.18;;;4.00;;
42036;SDS011;30340;52.004;5.908;2023-07-24T04:19:13;4.45;;;3.97;;
42036;SDS011;30340;52.004;5.908;2023-07-24T04:21:39;5.28;;;4.78;;
42036;SDS011;30340;52.004;5.908;2023-07-24T04:24:05;5.88;;;4.20;;
42036;SDS011;30340;52.004;5.908;2023-07-24T04:26:30;7.05;;;4.53;;
42036;SDS011;30340;52.004;5.908;2023-07-24T04:28:56;4.20;;;3.80;;
42036;SDS011;30340;52.004;5.908;2023-07-24T04:31:22;4.57;;;3.95;;
42036;SDS011;30340;52.004;5.908;2023-07-24T04:33:47;4.65;;;3.53;;
42036;SDS011;30340;52.004;5.908;2023-07-24T04:36:13;4.80;;;4.03;;
42036;SDS011;30340;52.004;5.908;2023-07-24T04:38:38;4.10;;;3.70;;
42036;SDS011;30340;52.004;5.908;2023-07-24T04:41:04;5.93;;;4.47;;
42036;SDS011;30340;52.004;5.908;2023-07-24T04:43:29;5.18;;;3.60;;
42036;SDS011;30340;52.004;5.908;2023-07-24T04:45:55;3.85;;;3.45;;
42036;SDS011;30340;52.004;5.908;2023-07-24T04:48:20;3.92;;;3.53;;
42036;SDS011;30340;52.004;5.908;2023-07-24T04:50:46;4.18;;;3.75;;
42036;SDS011;30340;52.004;5.908;2023-07-24T04:53:12;4.68;;;4.20;;
42036;SDS011;30340;52.004;5.908;2023-07-24T04:55:37;4.95;;;4.20;;
42036;SDS011;30340;52.004;5.908;2023-07-24T04:58:03;4.80;;;4.30;;
42036;SDS011;30340;52.004;5.908;2023-07-24T05:00:28;4.95;;;3.60;;
42036;SDS011;30340;52.004;5.908;2023-07-24T05:02:54;5.40;;;3.75;;
42036;SDS011;30340;52.004;5.908;2023-07-24T05:05:19;3.92;;;3.53;;
42036;SDS011;30340;52.004;5.908;2023-07-24T05:07:45;4.82;;;4.10;;
42036;SDS011;30340;52.004;5.908;2023-07-24T05:10:11;5.50;;;4.82;;
42036;SDS011;30340;52.004;5.908;2023-07-24T05:12:40;5.07;;;4.32;;
42036;SDS011;30340;52.004;5.908;2023-07-24T05:15:06;6.70;;;4.80;;
42036;SDS011;30340;52.004;5.908;2023-07-24T05:17:32;5.70;;;4.95;;
42036;SDS011;30340;52.004;5.908;2023-07-24T05:19:58;5.88;;;4.63;;
42036;SDS011;30340;52.004;5.908;2023-07-24T05:22:23;5.72;;;4.32;;
42036;SDS011;30340;52.004;5.908;2023-07-24T05:24:50;4.28;;;3.75;;
42036;SDS011;30340;52.004;5.908;2023-07-24T05:27:15;5.80;;;4.68;;
42036;SDS011;30340;52.004;5.908;2023-07-24T05:29:41;5.38;;;4.47;;
42036;SDS011;30340;52.004;5.908;2023-07-24T05:32:06;4.85;;;4.18;;
42036;SDS011;30340;52.004;5.908;2023-07-24T05:34:32;5.35;;;4.57;;
42036;SDS011;30340;52.004;5.908;2023-07-24T05:36:58;6.38;;;5.20;;
42036;SDS011;30340;52.004;5.908;2023-07-24T05:39:23;5.80;;;5.20;;
42036;SDS011;30340;52.004;5.908;2023-07-24T05:41:49;6.97;;;5.68;;
42036;SDS011;30340;52.004;5.908;2023-07-24T05:44:14;6.10;;;5.40;;
42036;SDS011;30340;52.004;5.908;2023-07-24T05:46:40;6.13;;;5.53;;
42036;SDS011;30340;52.004;5.908;2023-07-24T05:49:05;6.13;;;5.30;;
42036;SDS011;30340;52.004;5.908;2023-07-24T05:51:31;5.10;;;4.50;;
42036;SDS011;30340;52.004;5.908;2023-07-24T05:53:57;5.95;;;5.00;;
42036;SDS011;30340;52.004;5.908;2023-07-24T05:56:22;5.82;;;5.22;;
42036;SDS011;30340;52.004;5.908;2023-07-24T05:58:49;6.55;;;5.32;;
42036;SDS011;30340;52.004;5.908;2023-07-24T06:01:15;6.93;;;5.80;;
42036;SDS011;30340;52.004;5.908;2023-07-24T06:03:40;6.57;;;5.50;;
42036;SDS011;30340;52.004;5.908;2023-07-24T06:06:06;7.22;;;5.80;;
42036;SDS011;30340;52.004;5.908;2023-07-24T06:08:31;6.68;;;5.07;;
42036;SDS011;30340;52.004;5.908;2023-07-24T06:10:57;6.00;;;5.15;;
42036;SDS011;30340;52.004;5.908;2023-07-24T06:13:23;5.78;;;5.18;;
42036;SDS011;30340;52.004;5.908;2023-07-24T06:15:49;6.28;;;5.28;;
42036;SDS011;30340;52.004;5.908;2023-07-24T06:18:15;6.63;;;5.53;;
42036;SDS011;30340;52.004;5.908;2023-07-24T06:20:41;6.18;;;4.82;;
42036;SDS011;30340;52.004;5.908;2023-07-24T06:23:06;5.70;;;4.68;;
42036;SDS011;30340;52.004;5.908;2023-07-24T06:25:32;6.85;;;5.55;;
42036;SDS011;30340;52.004;5.908;2023-07-24T06:27:58;6.10;;;4.93;;
42036;SDS011;30340;52.004;5.908;2023-07-24T06:30:23;6.45;;;5.50;;
42036;SDS011;30340;52.004;5.908;2023-07-24T06:32:50;8.85;;;6.43;;
42036;SDS011;30340;52.004;5.908;2023-07-24T06:35:16;8.02;;;5.97;;
42036;SDS011;30340;52.004;5.908;2023-07-24T06:37:41;7.55;;;5.97;;
42036;SDS011;30340;52.004;5.908;2023-07-24T06:40:07;7.53;;;5.70;;
42036;SDS011;30340;52.004;5.908;2023-07-24T06:42:33;7.82;;;5.82;;
42036;SDS011;30340;52.004;5.908;2023-07-24T06:44:59;7.63;;;5.90;;
42036;SDS011;30340;52.004;5.908;2023-07-24T06:47:24;6.55;;;5.45;;
42036;SDS011;30340;52.004;5.908;2023-07-24T06:49:50;7.47;;;5.95;;
42036;SDS011;30340;52.004;5.908;2023-07-24T06:52:16;9.57;;;5.95;;
42036;SDS011;30340;52.004;5.908;2023-07-24T06:54:41;7.25;;;5.20;;
42036;SDS011;30340;52.004;5.908;2023-07-24T06:57:07;7.78;;;5.63;;
42036;SDS011;30340;52.004;5.908;2023-07-24T06:59:33;6.97;;;5.00;;
42036;SDS011;30340;52.004;5.908;2023-07-24T07:01:58;7.85;;;6.75;;
42036;SDS011;30340;52.004;5.908;2023-07-24T07:04:24;6.85;;;5.68;;
42036;SDS011;30340;52.004;5.908;2023-07-24T07:06:49;7.55;;;6.72;;
42036;SDS011;30340;52.004;5.908;2023-07-24T07:09:15;7.93;;;6.93;;
42036;SDS011;30340;52.004;5.908;2023-07-24T07:11:40;7.38;;;5.90;;
42036;SDS011;30340;52.004;5.908;2023-07-24T07:14:08;11.35;;;9.02;;
42036;SDS011;30340;52.004;5.908;2023-07-24T07:16:34;7.63;;;6.60;;
42036;SDS011;30340;52.004;5.908;2023-07-24T07:19:00;8.60;;;7.32;;
42036;SDS011;30340;52.004;5.908;2023-07-24T07:21:25;8.25;;;6.88;;
42036;SDS011;30340;52.004;5.908;2023-07-24T07:23:51;7.15;;;6.40;;
42036;SDS011;30340;52.004;5.908;2023-07-24T07:26:17;8.15;;;7.20;;
42036;SDS011;30340;52.004;5.908;2023-07-24T07:28:42;7.85;;;6.68;;
42036;SDS011;30340;52.004;5.908;2023-07-24T07:31:09;7.40;;;6.60;;
42036;SDS011;30340;52.004;5.908;2023-07-24T07:33:35;7.70;;;6.18;;
42036;SDS011;30340;52.004;5.908;2023-07-24T07:36:01;8.05;;;6.65;;
42036;SDS011;30340;52.004;5.908;2023-07-24T07:38:28;7.90;;;6.93;;
42036;SDS011;30340;52.004;5.908;2023-07-24T07:40:54;8.45;;;7.07;;
42036;SDS011;30340;52.004;5.908;2023-07-24T07:43:19;7.53;;;6.70;;
42036;SDS011;30340;52.004;5.908;2023-07-24T07:45:46;7.88;;;6.70;;
42036;SDS011;30340;52.004;5.908;2023-07-24T07:48:12;7.65;;;6.75;;
42036;SDS011;30340;52.004;5.908;2023-07-24T07:50:37;10.15;;;8.20;;
42036;SDS011;30340;52.004;5.908;2023-07-24T07:53:03;7.45;;;6.65;;
42036;SDS011;30340;52.004;5.908;2023-07-24T07:55:28;9.60;;;7.03;;
42036;SDS011;30340;52.004;5.908;2023-07-24T07:57:54;8.57;;;6.68;;
42036;SDS011;30340;52.004;5.908;2023-07-24T08:00:20;8.60;;;7.68;;
42036;SDS011;30340;52.004;5.908;2023-07-24T08:02:46;9.82;;;7.53;;
42036;SDS011;30340;52.004;5.908;2023-07-24T08:05:11;11.13;;;7.65;;
42036;SDS011;30340;52.004;5.908;2023-07-24T08:07:37;10.25;;;8.73;;
42036;SDS011;30340;52.004;5.908;2023-07-24T08:10:03;9.73;;;7.95;;
42036;SDS011;30340;52.004;5.908;2023-07-24T08:12:29;8.98;;;7.57;;
42036;SDS011;30340;52.004;5.908;2023-07-24T08:14:55;8.25;;;6.40;;
42036;SDS011;30340;52.004;5.908;2023-07-24T08:17:21;8.50;;;7.10;;
42036;SDS011;30340;52.004;5.908;2023-07-24T08:19:47;8.20;;;6.88;;
42036;SDS011;30340;52.004;5.908;2023-07-24T08:22:12;8.98;;;7.18;;
42036;SDS011;30340;52.004;5.908;2023-07-24T08:24:38;7.45;;;6.38;;
42036;SDS011;30340;52.004;5.908;2023-07-24T08:27:04;8.55;;;7.03;;
42036;SDS011;30340;52.004;5.908;2023-07-24T08:29:29;9.23;;;8.15;;
42036;SDS011;30340;52.004;5.908;2023-07-24T08:31:55;11.57;;;9.45;;
42036;SDS011;30340;52.004;5.908;2023-07-24T08:34:20;10.32;;;7.72;;
42036;SDS011;30340;52.004;5.908;2023-07-24T08:36:46;10.05;;;8.20;;
42036;SDS011;30340;52.004;5.908;2023-07-24T08:39:12;10.23;;;8.50;;
42036;SDS011;30340;52.004;5.908;2023-07-24T08:41:37;10.65;;;8.18;;
42036;SDS011;30340;52.004;5.908;2023-07-24T08:44:09;8.48;;;7.57;;
42036;SDS011;30340;52.004;5.908;2023-07-24T08:46:38;9.27;;;8.18;;
42036;SDS011;30340;52.004;5.908;2023-07-24T08:49:06;10.80;;;8.10;;
42036;SDS011;30340;52.004;5.908;2023-07-24T08:51:39;8.75;;;7.43;;
42036;SDS011;30340;52.004;5.908;2023-07-24T08:54:06;10.30;;;8.15;;
42036;SDS011;30340;52.004;5.908;2023-07-24T08:56:32;8.55;;;7.65;;
42036;SDS011;30340;52.004;5.908;2023-07-24T08:58:58;9.23;;;7.80;;
42036;SDS011;30340;52.004;5.908;2023-07-24T09:01:24;8.98;;;8.00;;
42036;SDS011;30340;52.004;5.908;2023-07-24T09:03:50;9.80;;;7.85;;
42036;SDS011;30340;52.004;5.908;2023-07-24T09:06:15;8.55;;;7.32;;
42036;SDS011;30340;52.004;5.908;2023-07-24T09:08:42;7.00;;;6.28;;
42036;SDS011;30340;52.004;5.908;2023-07-24T09:11:09;8.23;;;6.85;;
42036;SDS011;30340;52.004;5.908;2023-07-24T09:13:35;7.00;;;6.30;;
42036;SDS011;30340;52.004;5.908;2023-07-24T09:16:02;8.43;;;7.25;;
42036;SDS011;30340;52.004;5.908;2023-07-24T09:18:41;9.07;;;6.85;;
42036;SDS011;30340;52.004;5.908;2023-07-24T09:21:08;7.10;;;6.05;;
42036;SDS011;30340;52.004;5.908;2023-07-24T09:23:34;7.00;;;5.70;;
42036;SDS011;30340;52.004;5.908;2023-07-24T09:26:04;7.75;;;6.53;;
42036;SDS011;30340;52.004;5.908;2023-07-24T09:28:31;5.57;;;5.03;;
42036;SDS011;30340;52.004;5.908;2023-07-24T09:30:58;7.72;;;6.75;;
42036;SDS011;30340;52.004;5.908;2023-07-24T09:33:34;7.07;;;6.38;;
42036;SDS011;30340;52.004;5.908;2023-07-24T09:36:05;7.97;;;6.45;;
42036;SDS011;30340;52.004;5.908;2023-07-24T09:38:36;7.10;;;6.23;;
42036;SDS011;30340;52.004;5.908;2023-07-24T09:41:02;7.85;;;7.05;;
42036;SDS011;30340;52.004;5.908;2023-07-24T09:43:29;7.93;;;6.32;;
42036;SDS011;30340;52.004;5.908;2023-07-24T09:45:55;6.88;;;5.97;;
42036;SDS011;30340;52.004;5.908;2023-07-24T09:48:23;7.18;;;5.60;;
42036;SDS011;30340;52.004;5.908;2023-07-24T09:50:52;8.02;;;5.93;;
42036;SDS011;30340;52.004;5.908;2023-07-24T09:56:20;8.13;;;6.30;;
42036;SDS011;30340;52.004;5.908;2023-07-24T09:58:47;6.40;;;5.43;;
42036;SDS011;30340;52.004;5.908;2023-07-24T10:01:14;6.00;;;5.10;;
42036;SDS011;30340;52.004;5.908;2023-07-24T10:03:48;6.72;;;5.57;;
42036;SDS011;30340;52.004;5.908;2023-07-24T10:06:14;6.35;;;5.55;;
42036;SDS011;30340;52.004;5.908;2023-07-24T10:08:41;7.47;;;6.00;;
42036;SDS011;30340;52.004;5.908;2023-07-24T10:11:11;8.38;;;6.68;;
42036;SDS011;30340;52.004;5.908;2023-07-24T10:13:37;6.10;;;5.47;;
42036;SDS011;30340;52.004;5.908;2023-07-24T10:16:04;6.68;;;5.20;;
42036;SDS011;30340;52.004;5.908;2023-07-24T10:18:32;6.03;;;4.88;;
42036;SDS011;30340;52.004;5.908;2023-07-24T10:21:06;5.97;;;4.68;;
42036;SDS011;30340;52.004;5.908;2023-07-24T10:23:40;6.07;;;4.45;;
42036;SDS011;30340;52.004;5.908;2023-07-24T10:26:08;6.25;;;5.20;;
42036;SDS011;30340;52.004;5.908;2023-07-24T10:28:38;7.18;;;5.75;;
42036;SDS011;30340;52.004;5.908;2023-07-24T10:31:05;7.40;;;5.80;;
42036;SDS011;30340;52.004;5.908;2023-07-24T10:33:34;6.38;;;5.05;;
42036;SDS011;30340;52.004;5.908;2023-07-24T10:36:06;5.82;;;4.82;;
42036;SDS011;30340;52.004;5.908;2023-07-24T10:38:40;6.38;;;5.32;;
42036;SDS011;30340;52.004;5.908;2023-07-24T10:41:06;7.43;;;6.17;;
42036;SDS011;30340;52.004;5.908;2023-07-24T10:43:40;6.60;;;5.90;;
42036;SDS011;30340;52.004;5.908;2023-07-24T10:46:13;7.80;;;6.38;;
42036;SDS011;30340;52.004;5.908;2023-07-24T10:48:46;6.97;;;5.68;;
42036;SDS011;30340;52.004;5.908;2023-07-24T10:51:13;7.75;;;6.07;;
42036;SDS011;30340;52.004;5.908;2023-07-24T10:53:45;7.70;;;5.82;;
42036;SDS011;30340;52.004;5.908;2023-07-24T10:56:15;9.88;;;6.30;;
42036;SDS011;30340;52.004;5.908;2023-07-24T10:58:42;9.65;;;6.18;;
42036;SDS011;30340;52.004;5.908;2023-07-24T11:01:08;7.10;;;5.32;;
42036;SDS011;30340;52.004;5.908;2023-07-24T11:03:35;6.43;;;5.28;;
42036;SDS011;30340;52.004;5.908;2023-07-24T11:06:02;6.90;;;5.38;;
42036;SDS011;30340;52.004;5.908;2023-07-24T11:08:28;7.35;;;5.05;;
42036;SDS011;30340;52.004;5.908;2023-07-24T11:10:55;6.38;;;4.85;;
42036;SDS011;30340;52.004;5.908;2023-07-24T11:13:25;5.22;;;4.70;;
42036;SDS011;30340;52.004;5.908;2023-07-24T11:15:52;6.03;;;4.50;;
42036;SDS011;30340;52.004;5.908;2023-07-24T11:18:19;6.00;;;5.10;;
42036;SDS011;30340;52.004;5.908;2023-07-24T11:20:51;5.35;;;4.70;;
42036;SDS011;30340;52.004;5.908;2023-07-24T11:23:18;8.13;;;4.53;;
42036;SDS011;30340;52.004;5.908;2023-07-24T11:25:44;7.35;;;5.35;;
42036;SDS011;30340;52.004;5.908;2023-07-24T11:28:11;7.28;;;4.90;;
42036;SDS011;30340;52.004;5.908;2023-07-24T11:30:37;7.18;;;5.05;;
42036;SDS011;30340;52.004;5.908;2023-07-24T11:33:05;7.45;;;6.00;;
42036;SDS011;30340;52.004;5.908;2023-07-24T11:35:33;8.65;;;5.90;;
42036;SDS011;30340;52.004;5.908;2023-07-24T11:38:00;5.05;;;4.18;;
42036;SDS011;30340;52.004;5.908;2023-07-24T11:40:32;5.82;;;4.53;;
42036;SDS011;30340;52.004;5.908;2023-07-24T11:43:01;6.38;;;5.15;;
42036;SDS011;30340;52.004;5.908;2023-07-24T11:45:28;7.35;;;5.13;;
42036;SDS011;30340;52.004;5.908;2023-07-24T11:47:54;7.53;;;5.43;;
42036;SDS011;30340;52.004;5.908;2023-07-24T11:50:21;6.90;;;5.15;;
42036;SDS011;30340;52.004;5.908;2023-07-24T11:52:48;8.27;;;6.00;;
42036;SDS011;30340;52.004;5.908;2023-07-24T11:55:19;7.15;;;5.20;;
42036;SDS011;30340;52.004;5.908;2023-07-24T11:58:01;6.22;;;4.80;;
42036;SDS011;30340;52.004;5.908;2023-07-24T12:00:28;6.90;;;4.40;;
42036;SDS011;30340;52.004;5.908;2023-07-24T12:03:01;6.85;;;4.90;;
42036;SDS011;30340;52.004;5.908;2023-07-24T12:05:29;8.02;;;5.82;;
42036;SDS011;30340;52.004;5.908;2023-07-24T12:08:02;7.45;;;5.85;;
42036;SDS011;30340;52.004;5.908;2023-07-24T12:10:27;6.43;;;5.25;;
42036;SDS011;30340;52.004;5.908;2023-07-24T12:12:53;5.70;;;4.90;;
42036;SDS011;30340;52.004;5.908;2023-07-24T12:15:20;6.03;;;4.75;;
42036;SDS011;30340;52.004;5.908;2023-07-24T12:17:45;7.03;;;5.57;;
42036;SDS011;30340;52.004;5.908;2023-07-24T12:20:11;6.43;;;5.07;;
42036;SDS011;30340;52.004;5.908;2023-07-24T12:22:37;7.13;;;5.90;;
42036;SDS011;30340;52.004;5.908;2023-07-24T12:25:04;5.72;;;4.50;;
42036;SDS011;30340;52.004;5.908;2023-07-24T12:27:31;6.80;;;4.70;;
42036;SDS011;30340;52.004;5.908;2023-07-24T12:29:57;6.22;;;4.88;;
42036;SDS011;30340;52.004;5.908;2023-07-24T12:32:23;6.07;;;4.50;;
42036;SDS011;30340;52.004;5.908;2023-07-24T12:34:49;6.25;;;4.22;;
42036;SDS011;30340;52.004;5.908;2023-07-24T12:37:16;7.45;;;5.38;;
42036;SDS011;30340;52.004;5.908;2023-07-24T12:39:43;5.95;;;4.43;;
42036;SDS011;30340;52.004;5.908;2023-07-24T12:42:13;5.30;;;3.88;;
42036;SDS011;30340;52.004;5.908;2023-07-24T12:44:39;6.28;;;4.05;;
42036;SDS011;30340;52.004;5.908;2023-07-24T12:47:06;7.03;;;5.22;;
42036;SDS011;30340;52.004;5.908;2023-07-24T12:49:31;5.78;;;4.60;;
42036;SDS011;30340;52.004;5.908;2023-07-24T12:51:57;5.53;;;4.18;;
42036;SDS011;30340;52.004;5.908;2023-07-24T12:54:22;8.88;;;4.53;;
42036;SDS011;30340;52.004;5.908;2023-07-24T12:56:49;5.72;;;3.72;;
42036;SDS011;30340;52.004;5.908;2023-07-24T12:59:15;6.55;;;4.72;;
42036;SDS011;30340;52.004;5.908;2023-07-24T13:01:41;6.10;;;3.47;;
42036;SDS011;30340;52.004;5.908;2023-07-24T13:04:07;5.05;;;3.20;;
42036;SDS011;30340;52.004;5.908;2023-07-24T13:06:33;6.72;;;3.17;;
42036;SDS011;30340;52.004;5.908;2023-07-24T13:08:58;5.30;;;3.10;;
42036;SDS011;30340;52.004;5.908;2023-07-24T13:11:24;3.70;;;2.80;;
42036;SDS011;30340;52.004;5.908;2023-07-24T13:13:49;5.32;;;2.80;;
42036;SDS011;30340;52.004;5.908;2023-07-24T13:16:15;4.13;;;2.80;;
42036;SDS011;30340;52.004;5.908;2023-07-24T13:18:41;4.05;;;2.80;;
42036;SDS011;30340;52.004;5.908;2023-07-24T13:21:07;5.05;;;2.90;;
42036;SDS011;30340;52.004;5.908;2023-07-24T13:23:33;5.72;;;3.00;;
42036;SDS011;30340;52.004;5.908;2023-07-24T13:25:59;3.45;;;2.65;;
42036;SDS011;30340;52.004;5.908;2023-07-24T13:28:25;5.70;;;2.70;;
42036;SDS011;30340;52.004;5.908;2023-07-24T13:30:50;3.88;;;2.92;;
42036;SDS011;30340;52.004;5.908;2023-07-24T13:33:16;4.82;;;2.67;;
42036;SDS011;30340;52.004;5.908;2023-07-24T13:35:42;4.72;;;3.03;;
42036;SDS011;30340;52.004;5.908;2023-07-24T13:38:07;4.95;;;2.60;;
42036;SDS011;30340;52.004;5.908;2023-07-24T13:40:33;4.13;;;2.97;;
42036;SDS011;30340;52.004;5.908;2023-07-24T13:42:59;4.10;;;2.70;;
42036;SDS011;30340;52.004;5.908;2023-07-24T13:45:25;5.00;;;3.08;;
42036;SDS011;30340;52.004;5.908;2023-07-24T13:47:51;5.47;;;3.33;;
42036;SDS011;30340;52.004;5.908;2023-07-24T13:50:16;4.82;;;2.85;;
42036;SDS011;30340;52.004;5.908;2023-07-24T13:52:42;3.85;;;2.58;;
42036;SDS011;30340;52.004;5.908;2023-07-24T13:55:07;4.53;;;3.00;;
42036;SDS011;30340;52.004;5.908;2023-07-24T13:57:33;3.03;;;2.30;;
42036;SDS011;30340;52.004;5.908;2023-07-24T13:59:59;8.07;;;3.95;;
42036;SDS011;30340;52.004;5.908;2023-07-24T14:02:24;6.05;;;3.20;;
42036;SDS011;30340;52.004;5.908;2023-07-24T14:04:50;3.60;;;2.63;;
42036;SDS011;30340;52.004;5.908;2023-07-24T14:07:16;3.78;;;2.80;;
42036;SDS011;30340;52.004;5.908;2023-07-24T14:09:41;3.35;;;2.97;;
42036;SDS011;30340;52.004;5.908;2023-07-24T14:12:07;4.78;;;3.08;;
42036;SDS011;30340;52.004;5.908;2023-07-24T14:14:32;5.00;;;3.03;;
42036;SDS011;30340;52.004;5.908;2023-07-24T14:16:58;4.13;;;2.65;;
42036;SDS011;30340;52.004;5.908;2023-07-24T14:19:24;4.18;;;3.00;;
42036;SDS011;30340;52.004;5.908;2023-07-24T14:21:50;3.47;;;2.97;;
42036;SDS011;30340;52.004;5.908;2023-07-24T14:24:15;3.88;;;3.15;;
42036;SDS011;30340;52.004;5.908;2023-07-24T14:26:41;4.78;;;3.58;;
42036;SDS011;30340;52.004;5.908;2023-07-24T14:29:07;4.20;;;3.67;;
42036;SDS011;30340;52.004;5.908;2023-07-24T14:31:32;4.40;;;3.40;;
42036;SDS011;30340;52.004;5.908;2023-07-24T14:33:58;4.28;;;3.40;;
42036;SDS011;30340;52.004;5.908;2023-07-24T14:36:23;4.15;;;2.83;;
42036;SDS011;30340;52.004;5.908;2023-07-24T14:38:49;4.13;;;3.10;;
42036;SDS011;30340;52.004;5.908;2023-07-24T14:41:15;3.65;;;2.50;;
42036;SDS011;30340;52.004;5.908;2023-07-24T14:43:41;3.78;;;2.75;;
42036;SDS011;30340;52.004;5.908;2023-07-24T14:46:07;4.50;;;2.70;;